createdAt,value
2022-12-17T00:01:07.259Z,31.95
2022-12-17T00:06:47.267Z,31.63
2022-12-17T00:12:27.168Z,31.73
2022-12-17T00:18:07.413Z,31.93
2022-12-17T00:23:48.088Z,31.52
2022-12-17T00:29:28.796Z,31.58
2022-12-17T00:35:09.363Z,31.78
2022-12-17T00:40:50.182Z,32.02
2022-12-17T00:46:30.384Z,31.46
2022-12-17T00:52:11.004Z,31.92
2022-12-17T00:57:50.978Z,32.09
2022-12-17T01:03:32.409Z,31.85
2022-12-17T01:09:12.348Z,31.70
2022-12-17T01:14:52.517Z,31.51
2022-12-17T01:20:43.598Z,31.44
2022-12-17T01:26:24.021Z,31.66
2022-12-17T01:32:04.499Z,31.82
2022-12-17T01:37:45.101Z,31.83
2022-12-17T01:43:31.098Z,31.50
2022-12-17T01:49:11.269Z,31.57
2022-12-17T01:54:51.672Z,31.75
2022-12-17T02:00:34.204Z,31.33
2022-12-17T02:06:49.780Z,31.73
2022-12-17T02:12:43.723Z,31.68
2022-12-17T02:18:29.769Z,31.46
2022-12-17T02:24:23.597Z,31.65
2022-12-17T02:30:08.505Z,31.51
2022-12-17T02:36:01.137Z,31.32
2022-12-17T02:42:00.024Z,31.42
2022-12-17T02:47:42.585Z,31.39
2022-12-17T02:53:26.079Z,31.63
2022-12-17T02:59:06.023Z,31.42
2022-12-17T03:04:45.956Z,31.78
2022-12-17T03:10:26.837Z,31.74
2022-12-17T03:16:06.811Z,31.39
2022-12-17T03:21:46.780Z,31.64
2022-12-17T03:27:27.201Z,31.68
2022-12-17T03:33:07.661Z,31.52
2022-12-17T03:38:48.482Z,31.41
2022-12-17T03:44:28.766Z,31.72
2022-12-17T03:50:08.890Z,31.65
2022-12-17T03:55:49.451Z,31.24
2022-12-17T04:01:29.556Z,31.39
2022-12-17T04:07:10.320Z,31.52
2022-12-17T04:12:50.383Z,31.52
2022-12-17T04:18:30.860Z,31.27
2022-12-17T04:24:11.345Z,31.43
2022-12-17T04:29:51.620Z,31.19
2022-12-17T04:35:31.924Z,31.32
2022-12-17T04:41:12.088Z,31.58
2022-12-17T04:46:52.568Z,31.49
2022-12-17T04:52:33.145Z,31.37
2022-12-17T04:58:13.459Z,31.18
2022-12-17T05:03:53.647Z,31.21
2022-12-17T05:09:33.643Z,31.12
2022-12-17T05:15:13.593Z,31.44
2022-12-17T05:20:54.210Z,31.03
2022-12-17T05:26:40.203Z,31.07
2022-12-17T05:32:20.389Z,31.35
2022-12-17T05:38:00.528Z,31.30
2022-12-17T05:43:41.059Z,31.30
2022-12-17T05:49:21.631Z,31.33
2022-12-17T05:55:02.155Z,31.41
2022-12-17T06:00:43.093Z,31.10
2022-12-17T06:06:23.441Z,31.26
2022-12-17T06:12:03.870Z,31.08
2022-12-17T06:17:44.226Z,31.34
2022-12-17T06:23:27.875Z,31.21
2022-12-17T06:29:08.465Z,31.50
2022-12-17T06:34:48.830Z,31.08
2022-12-17T06:40:29.928Z,31.24
2022-12-17T06:46:10.927Z,30.80
2022-12-17T06:51:50.920Z,30.37
2022-12-17T06:57:31.167Z,29.99
2022-12-17T07:03:15.321Z,29.39
2022-12-17T07:08:55.404Z,28.74
2022-12-17T07:14:37.445Z,28.53
2022-12-17T07:20:17.661Z,27.91
2022-12-17T07:25:58.639Z,28.28
2022-12-17T07:31:39.018Z,27.93
2022-12-17T07:37:20.747Z,28.60
2022-12-17T07:43:01.411Z,28.33
2022-12-17T07:48:41.806Z,28.95
2022-12-17T07:54:22.287Z,28.96
2022-12-17T08:00:02.749Z,28.95
2022-12-17T08:05:43.328Z,29.07
2022-12-17T08:11:24.160Z,29.29
2022-12-17T08:17:04.835Z,29.31
2022-12-17T08:22:44.909Z,28.88
2022-12-17T08:28:49.488Z,28.62
2022-12-17T08:34:25.710Z,28.25
2022-12-17T08:40:05.732Z,28.02
2022-12-17T08:45:45.920Z,27.85
2022-12-17T08:51:25.977Z,25.85
2022-12-17T08:57:05.919Z,24.48
2022-12-17T09:02:45.952Z,24.53
2022-12-17T09:08:26.403Z,24.03
2022-12-17T09:14:17.065Z,24.34
2022-12-17T09:20:08.083Z,24.35
2022-12-17T09:25:49.233Z,24.73
2022-12-17T09:31:37.075Z,24.39
2022-12-17T09:37:18.051Z,24.78
2022-12-17T09:43:08.671Z,24.73
2022-12-17T09:48:58.871Z,24.68
2022-12-17T09:54:59.295Z,24.48
2022-12-17T10:00:44.795Z,24.85
2022-12-17T10:06:31.931Z,24.75
2022-12-17T10:12:12.534Z,24.87
2022-12-17T10:17:52.713Z,24.49
2022-12-17T10:23:47.584Z,24.31
2022-12-17T10:29:50.338Z,24.86
2022-12-17T10:35:39.534Z,24.65
2022-12-17T10:41:21.115Z,24.60
2022-12-17T10:47:01.637Z,24.76
2022-12-17T10:52:50.646Z,24.64
2022-12-17T10:58:34.525Z,24.46
2022-12-17T11:04:16.555Z,24.82
2022-12-17T11:10:10.431Z,24.81
2022-12-17T11:16:03.031Z,24.50
2022-12-17T11:21:54.620Z,24.46
2022-12-17T11:27:43.845Z,24.40
2022-12-17T11:33:33.532Z,24.54
2022-12-17T11:39:34.780Z,24.74
2022-12-17T11:45:45.802Z,24.74
2022-12-17T11:51:35.313Z,24.83
2022-12-17T11:57:15.353Z,24.60
2022-12-17T12:03:04.744Z,24.44
2022-12-17T12:08:52.502Z,24.59
2022-12-17T12:14:54.094Z,24.58
2022-12-17T12:20:58.192Z,24.19
2022-12-17T12:26:48.622Z,24.73
2022-12-17T12:32:48.442Z,25.13
2022-12-17T12:38:46.392Z,25.29
2022-12-17T12:45:04.312Z,25.60
2022-12-17T12:51:00.654Z,26.21
2022-12-17T12:56:55.760Z,26.26
2022-12-17T13:02:38.852Z,26.27
2022-12-17T13:08:21.230Z,26.62
2022-12-17T13:13:56.232Z,26.81
2022-12-17T13:19:32.378Z,26.90
2022-12-17T13:24:57.927Z,27.13
2022-12-17T13:30:22.319Z,26.99
2022-12-17T13:36:13.563Z,26.99
2022-12-17T13:41:36.165Z,27.02
2022-12-17T13:46:57.938Z,27.05
2022-12-17T13:52:22.266Z,27.51
2022-12-17T13:57:48.506Z,27.24
2022-12-17T14:03:12.263Z,27.78
2022-12-17T14:08:35.434Z,27.98
2022-12-17T14:13:57.923Z,28.05
2022-12-17T14:19:19.717Z,28.20
2022-12-17T14:24:41.618Z,27.71
2022-12-17T14:30:21.284Z,27.64
2022-12-17T14:35:51.491Z,27.41
2022-12-17T14:41:33.758Z,27.39
2022-12-17T14:47:17.766Z,27.38
2022-12-17T14:52:47.643Z,27.19
2022-12-17T14:58:16.619Z,27.62
2022-12-17T15:03:41.303Z,27.21
2022-12-17T15:09:04.938Z,27.26
2022-12-17T15:14:26.670Z,27.06
2022-12-17T15:19:55.611Z,27.00
2022-12-17T15:25:19.999Z,26.98
2022-12-17T15:30:41.799Z,27.13
2022-12-17T15:36:03.869Z,27.32
2022-12-17T15:41:44.656Z,27.23
2022-12-17T15:47:06.438Z,26.90
2022-12-17T15:52:28.474Z,27.40
2022-12-17T15:57:50.187Z,27.11
2022-12-17T16:03:12.026Z,27.26
2022-12-17T16:08:34.033Z,26.91
2022-12-17T16:13:56.239Z,26.92
2022-12-17T16:19:18.581Z,27.27
2022-12-17T16:24:41.093Z,26.90
2022-12-17T16:30:03.808Z,27.06
2022-12-17T16:35:26.703Z,26.96
2022-12-17T16:40:48.499Z,27.07
2022-12-17T16:46:33.549Z,26.89
2022-12-17T16:51:57.783Z,26.69
2022-12-17T16:57:19.663Z,26.75
2022-12-17T17:02:41.872Z,26.61
2022-12-17T17:08:04.580Z,26.82
2022-12-17T17:13:26.250Z,26.94
2022-12-17T17:18:48.458Z,26.89
2022-12-17T17:24:16.932Z,26.66
2022-12-17T17:29:41.915Z,26.67
2022-12-17T17:35:04.039Z,26.72
2022-12-17T17:40:26.112Z,26.26
2022-12-17T17:45:48.497Z,26.70
2022-12-17T17:51:29.470Z,26.40
2022-12-17T17:57:01.206Z,26.91
2022-12-17T18:02:23.078Z,27.04
2022-12-17T18:07:45.021Z,27.17
2022-12-17T18:13:25.084Z,27.46
2022-12-17T18:18:47.021Z,27.51
2022-12-17T18:24:15.215Z,27.71
2022-12-17T18:29:37.049Z,27.93
2022-12-17T18:34:58.760Z,27.06
2022-12-17T18:40:20.461Z,27.04
2022-12-17T18:45:45.108Z,27.69
2022-12-17T18:51:07.365Z,27.21
2022-12-17T18:56:59.627Z,27.30
2022-12-17T19:02:13.172Z,27.03
2022-12-17T19:07:34.961Z,26.98
2022-12-17T19:12:56.747Z,26.84
2022-12-17T19:18:18.579Z,26.71
2022-12-17T19:23:40.685Z,27.29
2022-12-17T19:29:02.889Z,27.33
2022-12-17T19:34:24.575Z,27.26
2022-12-17T19:39:46.289Z,27.49
2022-12-17T19:45:08.525Z,27.66
2022-12-17T19:50:30.262Z,28.28
2022-12-17T19:55:51.993Z,28.43
2022-12-17T20:01:20.259Z,28.23
2022-12-17T20:06:43.038Z,28.79
2022-12-17T20:12:04.885Z,28.72
2022-12-17T20:17:26.650Z,27.75
2022-12-17T20:22:48.338Z,27.03
2022-12-17T20:28:10.102Z,26.80
2022-12-17T20:33:32.357Z,26.50
2022-12-17T20:38:54.070Z,26.46
2022-12-17T20:44:15.818Z,26.19
2022-12-17T20:49:37.503Z,26.22
2022-12-17T20:54:59.158Z,26.36
2022-12-17T21:00:20.892Z,26.57
2022-12-17T21:05:42.629Z,26.55
2022-12-17T21:11:05.777Z,27.34
2022-12-17T21:16:30.675Z,27.49
2022-12-17T21:21:52.380Z,27.47
2022-12-17T21:27:15.044Z,27.48
2022-12-17T21:32:37.055Z,27.88
2022-12-17T21:37:58.781Z,28.33
2022-12-17T21:43:20.583Z,29.80
2022-12-17T21:48:42.988Z,30.68
2022-12-17T21:54:08.969Z,31.08
2022-12-17T21:59:31.301Z,31.93
2022-12-17T22:04:53.042Z,32.01
2022-12-17T22:10:36.257Z,32.71
2022-12-17T22:15:56.829Z,33.15
2022-12-17T22:21:20.369Z,33.50
2022-12-17T22:26:42.497Z,33.97
2022-12-17T22:32:23.075Z,34.61
2022-12-17T22:41:42.073Z,34.55
2022-12-17T22:44:42.469Z,35.22
2022-12-17T22:49:11.865Z,35.93
2022-12-17T22:54:33.560Z,36.21
2022-12-17T22:59:55.664Z,36.48
2022-12-17T23:05:17.421Z,36.23
2022-12-17T23:10:39.121Z,36.10
2022-12-17T23:16:00.791Z,35.52
2022-12-17T23:21:25.775Z,35.24
2022-12-17T23:26:47.415Z,35.27
2022-12-17T23:32:09.134Z,35.02
2022-12-17T23:37:33.902Z,34.68
2022-12-17T23:43:00.734Z,34.61
2022-12-17T23:48:22.420Z,34.83
2022-12-17T23:53:44.772Z,35.12
2022-12-17T23:59:06.480Z,35.78
